Time;durP1;ratioP1;P1;durP2;ratioP2;P2;SDS_P1;SDS_P2;PMS_P1;PMS_P2;Temp;Humidity;BMP_temperature;BMP_pressure;BME280_temperature;BME280_humidity;BME280_pressure;Samples;Min_cycle;Max_cycle;Signal;HPM_P1;HPM_P2
2023/05/20 00:00:25;;;;;;;11.27;7.73;;;11.50;99.90;;;;;;5114228;27;20189;-32
2023/05/20 00:02:50;;;;;;;11.40;8.10;;;11.50;99.90;;;;;;5117367;27;20255;-34
2023/05/20 00:05:16;;;;;;;11.90;8.23;;;11.50;99.90;;;;;;5117726;27;20229;-34
2023/05/20 00:07:42;;;;;;;9.40;8.07;;;11.60;99.90;;;;;;5117048;27;20280;-33
2023/05/20 00:10:08;;;;;;;11.00;8.23;;;11.60;99.90;;;;;;5121549;27;20182;-33
2023/05/20 00:12:34;;;;;;;12.10;7.63;;;11.60;99.90;;;;;;5096368;28;20182;-33
2023/05/20 00:15:00;;;;;;;12.60;8.10;;;11.60;99.90;;;;;;5133857;27;20184;-32
2023/05/20 00:17:27;;;;;;;9.07;7.50;;;11.60;99.90;;;;;;5101540;28;20217;-32
2023/05/20 00:19:53;;;;;;;12.20;7.70;;;11.60;99.90;;;;;;5114787;28;20182;-32
2023/05/20 00:22:19;;;;;;;12.30;7.63;;;11.60;99.90;;;;;;5079634;28;20188;-33
2023/05/20 00:24:45;;;;;;;9.63;7.50;;;11.60;99.90;;;;;;5089704;27;20182;-32
2023/05/20 00:27:11;;;;;;;8.13;7.10;;;11.60;99.90;;;;;;5116905;27;20702;-33
2023/05/20 00:29:36;;;;;;;9.60;7.20;;;11.70;99.90;;;;;;5099309;27;20252;-37
2023/05/20 00:32:02;;;;;;;7.17;6.40;;;11.70;99.90;;;;;;5098336;27;20187;-32
2023/05/20 00:34:28;;;;;;;8.57;6.70;;;11.70;99.90;;;;;;5116275;27;20198;-35
2023/05/20 00:36:54;;;;;;;9.17;6.80;;;11.60;99.90;;;;;;5116428;27;20186;-32
2023/05/20 00:39:20;;;;;;;8.97;6.33;;;11.60;99.90;;;;;;5135441;27;20184;-32
2023/05/20 00:41:45;;;;;;;8.70;6.10;;;11.60;99.90;;;;;;5099594;27;20719;-32
2023/05/20 00:44:11;;;;;;;10.87;6.70;;;11.60;99.90;;;;;;5111868;28;20204;-32
2023/05/20 00:46:37;;;;;;;7.63;5.87;;;11.60;99.90;;;;;;5101137;27;20205;-35
2023/05/20 00:49:04;;;;;;;7.83;6.83;;;11.60;99.90;;;;;;5116757;27;20186;-32
2023/05/20 00:51:30;;;;;;;9.33;6.10;;;11.50;99.90;;;;;;5116018;27;20181;-32
2023/05/20 00:53:57;;;;;;;9.33;6.73;;;11.50;99.90;;;;;;5133302;27;20213;-32
2023/05/20 00:56:24;;;;;;;8.10;6.43;;;11.60;99.90;;;;;;5099414;27;20204;-32
2023/05/20 00:58:50;;;;;;;9.13;6.57;;;11.60;99.90;;;;;;5116284;27;20183;-34
2023/05/20 01:01:16;;;;;;;8.63;6.17;;;11.60;99.90;;;;;;5134355;27;20192;-32
2023/05/20 01:03:41;;;;;;;8.50;6.70;;;11.60;99.90;;;;;;5116066;27;20194;-32
2023/05/20 01:06:07;;;;;;;10.17;6.80;;;11.60;99.90;;;;;;5134786;27;20198;-32
2023/05/20 01:08:34;;;;;;;8.17;6.10;;;11.60;99.90;;;;;;5116109;27;20231;-33
2023/05/20 01:11:20;;;;;;;8.33;7.30;;;11.60;99.90;;;;;;5116173;27;20177;-32
2023/05/20 01:13:57;;;;;;;7.67;6.90;;;11.60;99.90;;;;;;5116275;27;20230;-32
2023/05/20 01:16:23;;;;;;;8.40;6.93;;;11.60;99.90;;;;;;5116274;27;20160;-32
2023/05/20 01:18:54;;;;;;;8.83;7.33;;;11.60;99.90;;;;;;5115658;27;20174;-32
2023/05/20 01:21:22;;;;;;;8.63;6.50;;;11.60;99.90;;;;;;5115755;27;20269;-34
2023/05/20 01:23:48;;;;;;;8.90;6.80;;;11.60;99.90;;;;;;5115647;27;20280;-32
2023/05/20 01:26:14;;;;;;;10.67;7.20;;;11.60;99.90;;;;;;5098716;27;20198;-32
2023/05/20 01:28:42;;;;;;;10.10;7.27;;;11.60;99.90;;;;;;5098521;27;20208;-34
2023/05/20 01:31:14;;;;;;;8.83;7.00;;;11.60;99.90;;;;;;5098615;27;20182;-34
2023/05/20 01:33:41;;;;;;;7.63;6.47;;;11.60;99.90;;;;;;5111363;28;20193;-36
2023/05/20 01:36:08;;;;;;;9.83;7.53;;;11.60;99.90;;;;;;5095059;28;20178;-33
2023/05/20 01:38:35;;;;;;;8.53;6.60;;;11.60;99.90;;;;;;5099265;27;20192;-32
2023/05/20 01:41:03;;;;;;;9.27;7.10;;;11.60;99.90;;;;;;5115433;27;20182;-32
2023/05/20 01:43:30;;;;;;;10.53;7.70;;;11.60;99.90;;;;;;5095859;28;20210;-35
2023/05/20 01:45:57;;;;;;;9.30;7.07;;;11.60;99.90;;;;;;5099576;27;20186;-33
2023/05/20 01:48:23;;;;;;;9.43;7.57;;;11.60;99.90;;;;;;5118859;27;20716;-33
2023/05/20 01:50:51;;;;;;;8.63;6.93;;;11.50;99.90;;;;;;5118423;27;20206;-31
2023/05/20 01:53:19;;;;;;;10.17;7.10;;;11.50;99.90;;;;;;5101897;27;20198;-34
2023/05/20 01:56:10;;;;;;;10.03;6.87;;;11.50;99.90;;;;;;5111944;28;20181;-34
2023/05/20 01:58:36;;;;;;;10.50;7.20;;;11.50;99.90;;;;;;5094621;28;20713;-34
2023/05/20 02:01:02;;;;;;;8.53;6.93;;;11.50;99.90;;;;;;5095902;27;20174;-34
2023/05/20 02:03:29;;;;;;;8.63;6.67;;;11.50;99.90;;;;;;5114924;27;20236;-34
2023/05/20 02:05:55;;;;;;;8.90;6.60;;;11.50;99.90;;;;;;5116840;27;20203;-34
2023/05/20 02:08:22;;;;;;;9.33;6.53;;;11.50;99.90;;;;;;5077708;28;20201;-34
2023/05/20 02:10:48;;;;;;;8.73;6.47;;;11.60;99.90;;;;;;5094480;28;20201;-34
2023/05/20 02:13:14;;;;;;;8.63;5.63;;;11.50;99.90;;;;;;5097344;27;20218;-34
2023/05/20 02:15:41;;;;;;;8.40;5.33;;;11.50;99.90;;;;;;5106094;27;20177;-34
2023/05/20 02:18:07;;;;;;;7.00;6.23;;;11.50;99.90;;;;;;5115092;27;20238;-37
2023/05/20 02:20:36;;;;;;;8.03;6.80;;;11.60;99.90;;;;;;5132172;27;20188;-34
2023/05/20 02:23:04;;;;;;;7.40;6.10;;;11.60;99.90;;;;;;5114592;27;20205;-34
2023/05/20 02:25:31;;;;;;;7.83;6.30;;;11.60;99.90;;;;;;5097549;27;20186;-34
2023/05/20 02:27:57;;;;;;;9.80;6.60;;;11.60;99.90;;;;;;5114985;27;20205;-34
2023/05/20 02:30:22;;;;;;;7.87;7.17;;;11.50;99.90;;;;;;5097674;27;20219;-34
2023/05/20 02:32:48;;;;;;;7.10;6.40;;;11.50;99.90;;;;;;5097686;27;20204;-35
2023/05/20 02:35:15;;;;;;;9.23;6.73;;;11.50;99.90;;;;;;5097029;27;20261;-34
2023/05/20 02:37:43;;;;;;;7.47;6.37;;;11.40;99.90;;;;;;5097980;27;20173;-34
2023/05/20 02:40:09;;;;;;;8.87;6.60;;;11.40;99.90;;;;;;5114130;27;20186;-35
2023/05/20 02:42:37;;;;;;;10.37;6.40;;;11.40;99.90;;;;;;5113924;27;20233;-34
2023/05/20 02:45:04;;;;;;;7.20;5.97;;;11.40;99.90;;;;;;5113707;27;20216;-34
2023/05/20 02:47:29;;;;;;;8.17;6.47;;;11.40;99.90;;;;;;5115115;27;20250;-33
2023/05/20 02:49:55;;;;;;;9.93;7.30;;;11.40;99.90;;;;;;5115133;27;20174;-37
2023/05/20 02:52:21;;;;;;;8.67;6.60;;;11.40;99.90;;;;;;5096815;27;20182;-32
2023/05/20 02:54:48;;;;;;;9.53;6.47;;;11.50;99.90;;;;;;5113897;27;20214;-33
2023/05/20 02:57:15;;;;;;;9.40;6.43;;;11.50;99.90;;;;;;5132780;27;20265;-32
2023/05/20 02:59:41;;;;;;;8.77;6.40;;;11.50;99.90;;;;;;5097141;27;20181;-33
2023/05/20 03:02:06;;;;;;;7.13;6.17;;;11.50;99.90;;;;;;5113797;27;20185;-32
2023/05/20 03:04:32;;;;;;;11.80;7.17;;;11.50;99.90;;;;;;5113444;27;20214;-35
2023/05/20 03:06:58;;;;;;;8.83;7.23;;;11.50;99.90;;;;;;5096859;27;20244;-33
2023/05/20 03:09:24;;;;;;;7.57;6.80;;;11.50;99.90;;;;;;5097360;27;20185;-32
2023/05/20 03:11:50;;;;;;;9.67;6.30;;;11.40;99.90;;;;;;5097307;27;20177;-32
2023/05/20 03:14:15;;;;;;;7.20;6.50;;;11.40;99.90;;;;;;5098182;28;20211;-32
2023/05/20 03:16:41;;;;;;;6.83;5.63;;;11.40;99.90;;;;;;5092984;28;20183;-33
2023/05/20 03:19:07;;;;;;;7.60;6.33;;;11.40;99.90;;;;;;5114748;27;20196;-32
2023/05/20 03:21:34;;;;;;;8.87;6.50;;;11.30;99.90;;;;;;5099269;27;20265;-32
2023/05/20 03:24:00;;;;;;;7.43;6.70;;;11.30;99.90;;;;;;5113334;28;20711;-34
2023/05/20 03:26:26;;;;;;;10.30;6.67;;;11.30;99.90;;;;;;5095812;28;20184;-33
2023/05/20 03:28:52;;;;;;;7.43;6.67;;;11.30;99.90;;;;;;5113394;28;20179;-36
2023/05/20 03:31:18;;;;;;;7.93;6.50;;;11.30;99.90;;;;;;5096824;28;20250;-32
2023/05/20 03:33:45;;;;;;;10.43;6.87;;;11.30;99.90;;;;;;5100474;28;20192;-34
2023/05/20 03:36:11;;;;;;;7.87;7.07;;;11.30;99.90;;;;;;5092824;28;20204;-32
2023/05/20 03:38:37;;;;;;;9.70;7.20;;;11.20;99.90;;;;;;5092579;28;20177;-32
2023/05/20 03:41:03;;;;;;;8.60;6.43;;;11.20;99.90;;;;;;5093273;28;20181;-34
2023/05/20 03:43:28;;;;;;;8.80;6.83;;;11.20;99.90;;;;;;5098754;28;20213;-32
2023/05/20 03:45:55;;;;;;;9.77;6.90;;;11.30;99.90;;;;;;5094159;28;20193;-33
2023/05/20 03:48:21;;;;;;;8.07;6.53;;;11.30;99.90;;;;;;5092377;28;20212;-33
2023/05/20 03:50:48;;;;;;;7.00;6.30;;;11.30;99.90;;;;;;5093291;28;20212;-33
2023/05/20 03:53:16;;;;;;;8.33;6.70;;;11.30;99.90;;;;;;5092779;28;20189;-32
2023/05/20 03:55:42;;;;;;;8.27;6.63;;;11.30;99.90;;;;;;5075868;28;20173;-33
2023/05/20 03:58:09;;;;;;;8.07;6.77;;;11.30;99.90;;;;;;5093016;28;20187;-31
2023/05/20 04:00:35;;;;;;;9.30;6.50;;;11.40;99.90;;;;;;5076201;28;20175;-32
2023/05/20 04:03:01;;;;;;;7.90;6.97;;;11.40;99.90;;;;;;5092793;28;20199;-32
2023/05/20 04:05:27;;;;;;;8.23;6.37;;;11.40;99.90;;;;;;5075954;28;20264;-32
2023/05/20 04:07:56;;;;;;;7.73;6.43;;;11.40;99.90;;;;;;5092954;28;20204;-36
2023/05/20 04:10:22;;;;;;;8.17;6.27;;;11.50;99.90;;;;;;5094736;28;20209;-33
2023/05/20 04:12:51;;;;;;;8.60;6.97;;;11.50;99.90;;;;;;5112864;28;20212;-32
2023/05/20 04:15:18;;;;;;;8.23;6.53;;;11.50;99.90;;;;;;5107379;28;20176;-32
2023/05/20 04:17:56;;;;;;;8.37;6.77;;;11.50;99.90;;;;;;5094857;28;20220;-37
2023/05/20 04:20:23;;;;;;;8.13;6.80;;;11.60;99.90;;;;;;5092752;28;20189;-36
2023/05/20 04:22:51;;;;;;;8.87;6.93;;;11.60;99.90;;;;;;5090987;28;20230;-35
2023/05/20 04:25:17;;;;;;;8.60;6.90;;;11.70;99.90;;;;;;5092846;28;20187;-36
2023/05/20 04:27:43;;;;;;;7.40;6.60;;;11.70;99.90;;;;;;5075547;28;20206;-37
2023/05/20 04:30:09;;;;;;;7.23;6.43;;;11.70;99.90;;;;;;5092605;28;20178;-34
2023/05/20 04:32:38;;;;;;;8.00;6.43;;;11.70;99.90;;;;;;5092595;28;20240;-36
2023/05/20 04:35:10;;;;;;;7.50;6.40;;;11.70;99.90;;;;;;5094873;28;20176;-36
2023/05/20 04:37:39;;;;;;;13.97;6.57;;;11.80;99.90;;;;;;5102417;27;20182;-37
2023/05/20 04:40:08;;;;;;;9.17;6.40;;;11.80;99.90;;;;;;5101277;27;20193;-37
2023/05/20 04:42:34;;;;;;;7.27;6.00;;;11.80;99.90;;;;;;5104898;27;20270;-34
2023/05/20 04:45:03;;;;;;;8.97;6.43;;;11.80;99.90;;;;;;5095287;28;20179;-37
2023/05/20 04:47:37;;;;;;;7.43;6.03;;;11.90;99.90;;;;;;5097361;27;20195;-37
2023/05/20 04:50:09;;;;;;;6.43;5.83;;;11.80;99.90;;;;;;5107212;27;20176;-35
2023/05/20 04:52:37;;;;;;;6.97;5.67;;;11.80;99.90;;;;;;5088225;27;20221;-39
2023/05/20 04:55:08;;;;;;;7.27;5.83;;;11.80;99.90;;;;;;5088419;27;20632;-35
2023/05/20 04:57:38;;;;;;;7.33;5.87;;;11.80;99.90;;;;;;5105210;27;20174;-38
2023/05/20 05:00:09;;;;;;;9.33;5.87;;;11.80;99.90;;;;;;5122997;27;20203;-37
2023/05/20 05:02:37;;;;;;;8.13;5.90;;;11.90;99.90;;;;;;5106087;27;20168;-36
2023/05/20 05:05:03;;;;;;;6.53;5.17;;;11.90;99.90;;;;;;5123089;27;20629;-35
2023/05/20 05:07:30;;;;;;;6.57;5.97;;;11.90;99.90;;;;;;5113443;27;20213;-35
2023/05/20 05:09:57;;;;;;;8.40;5.23;;;11.90;99.90;;;;;;5105511;27;20170;-38
2023/05/20 05:12:23;;;;;;;7.83;5.70;;;11.90;99.90;;;;;;5093232;27;20232;-35
2023/05/20 05:14:49;;;;;;;9.40;6.10;;;11.90;99.90;;;;;;5100396;27;20206;-34
2023/05/20 05:17:15;;;;;;;9.40;5.93;;;12.00;99.90;;;;;;5093927;27;20178;-34
2023/05/20 05:19:41;;;;;;;7.77;5.93;;;12.00;99.90;;;;;;5103749;27;20199;-37
2023/05/20 05:22:07;;;;;;;8.87;5.80;;;12.00;99.90;;;;;;5105539;27;20178;-35
2023/05/20 05:24:33;;;;;;;8.70;6.50;;;12.10;99.90;;;;;;5092820;27;20207;-41
2023/05/20 05:26:59;;;;;;;8.73;6.47;;;12.10;99.90;;;;;;5097649;28;20197;-38
2023/05/20 05:29:25;;;;;;;7.00;6.27;;;12.10;99.90;;;;;;5108265;27;20206;-37
2023/05/20 05:31:51;;;;;;;6.30;5.70;;;12.20;99.90;;;;;;5105975;27;20240;-36
2023/05/20 05:34:18;;;;;;;8.30;5.73;;;12.20;99.90;;;;;;5093115;27;20194;-37
2023/05/20 05:36:43;;;;;;;11.50;5.90;;;12.20;99.90;;;;;;5098551;27;20171;-37
2023/05/20 05:39:09;;;;;;;6.40;5.63;;;12.30;99.90;;;;;;5104396;28;20183;-37
2023/05/20 05:41:38;;;;;;;6.67;5.83;;;12.30;99.90;;;;;;5115795;27;20183;-37
2023/05/20 05:44:05;;;;;;;7.10;5.57;;;12.30;99.90;;;;;;5101251;27;20205;-38
2023/05/20 05:46:32;;;;;;;8.70;5.77;;;12.30;99.90;;;;;;5102846;27;20182;-35
2023/05/20 05:48:58;;;;;;;8.60;5.97;;;12.30;99.90;;;;;;5092321;27;20201;-38
2023/05/20 05:51:27;;;;;;;6.40;5.80;;;12.30;99.90;;;;;;5116275;27;20214;-37
2023/05/20 05:53:54;;;;;;;6.87;6.17;;;12.30;99.90;;;;;;5094370;27;20297;-35
2023/05/20 05:56:20;;;;;;;7.87;5.90;;;12.40;99.90;;;;;;5084738;27;20168;-40
2023/05/20 05:58:47;;;;;;;5.80;5.20;;;12.40;99.90;;;;;;5085882;27;20199;-37
2023/05/20 06:01:13;;;;;;;5.90;5.30;;;12.40;99.90;;;;;;5094038;28;20190;-36
2023/05/20 06:03:39;;;;;;;7.23;5.50;;;12.40;99.90;;;;;;5086374;27;20237;-35
2023/05/20 06:06:05;;;;;;;7.83;5.63;;;12.50;99.90;;;;;;5108804;27;20247;-39
2023/05/20 06:08:32;;;;;;;8.47;6.17;;;12.50;99.90;;;;;;5091553;27;20206;-36
2023/05/20 06:10:58;;;;;;;6.50;5.80;;;12.60;99.90;;;;;;5089975;27;20236;-38
2023/05/20 06:13:24;;;;;;;7.90;5.67;;;12.60;99.90;;;;;;5103404;27;20199;-37
2023/05/20 06:15:50;;;;;;;5.83;4.93;;;12.70;99.90;;;;;;5102989;28;20274;-39
2023/05/20 06:18:16;;;;;;;6.23;4.87;;;12.80;99.90;;;;;;5099324;27;20175;-37
2023/05/20 06:20:42;;;;;;;5.70;5.10;;;12.90;99.90;;;;;;5081553;28;20176;-34
2023/05/20 06:23:08;;;;;;;6.40;5.03;;;13.00;99.90;;;;;;5097288;27;20206;-39
2023/05/20 06:25:42;;;;;;;7.47;5.03;;;13.10;99.90;;;;;;5114000;27;20179;-37
2023/05/20 06:28:08;;;;;;;7.23;5.33;;;13.10;99.90;;;;;;5114191;27;20206;-37
2023/05/20 06:30:34;;;;;;;6.10;5.50;;;13.30;99.90;;;;;;5114176;27;20171;-37
2023/05/20 06:33:00;;;;;;;5.80;5.13;;;13.30;99.90;;;;;;5113728;27;20192;-40
2023/05/20 06:35:26;;;;;;;6.00;5.40;;;13.40;99.90;;;;;;5096741;27;20266;-36
2023/05/20 06:37:52;;;;;;;7.87;6.40;;;13.50;99.90;;;;;;5114221;27;20206;-35
2023/05/20 06:40:18;;;;;;;11.67;8.33;;;13.60;99.90;;;;;;5129647;27;20184;-37
2023/05/20 06:42:44;;;;;;;6.70;5.90;;;13.70;99.90;;;;;;5113331;27;20206;-40
2023/05/20 06:45:10;;;;;;;6.00;5.23;;;13.70;99.90;;;;;;5111081;27;20190;-38
2023/05/20 06:47:41;;;;;;;5.67;4.70;;;13.90;99.90;;;;;;5097512;27;20210;-38
2023/05/20 06:50:08;;;;;;;5.67;4.80;;;13.90;99.90;;;;;;5096873;27;20198;-35
2023/05/20 06:52:34;;;;;;;7.27;4.27;;;14.00;99.90;;;;;;5113779;27;20179;-38
2023/05/20 06:55:01;;;;;;;5.07;4.57;;;14.10;99.90;;;;;;5113171;28;20649;-35
2023/05/20 06:57:28;;;;;;;5.80;4.20;;;14.20;99.90;;;;;;5114035;27;20665;-35
2023/05/20 06:59:54;;;;;;;7.43;5.00;;;14.30;99.90;;;;;;5113451;27;20182;-35
2023/05/20 07:02:21;;;;;;;5.23;4.43;;;14.40;99.90;;;;;;5112640;27;20182;-36
2023/05/20 07:04:47;;;;;;;6.83;4.77;;;14.50;99.90;;;;;;5113211;27;20239;-40
2023/05/20 07:07:13;;;;;;;5.60;5.03;;;14.60;99.90;;;;;;5096696;27;20206;-37
2023/05/20 07:09:39;;;;;;;5.67;5.03;;;14.60;99.90;;;;;;5113310;27;20187;-38
2023/05/20 07:12:06;;;;;;;5.97;4.93;;;14.70;99.90;;;;;;5096575;27;20171;-36
2023/05/20 07:14:32;;;;;;;5.23;4.73;;;14.80;99.90;;;;;;5095956;27;20215;-37
2023/05/20 07:16:58;;;;;;;5.10;4.60;;;15.00;99.90;;;;;;5096412;27;20179;-37
2023/05/20 07:19:24;;;;;;;5.57;4.80;;;15.10;99.90;;;;;;5095685;28;20182;-36
2023/05/20 07:21:50;;;;;;;5.50;4.90;;;15.30;99.90;;;;;;5113172;27;20261;-38
2023/05/20 07:24:35;;;;;;;5.10;4.60;;;15.40;99.90;;;;;;5131646;27;20245;-41
2023/05/20 07:27:03;;;;;;;5.87;5.00;;;15.50;99.90;;;;;;5113041;28;20210;-37
2023/05/20 07:29:29;;;;;;;5.83;5.17;;;15.60;99.90;;;;;;5113206;28;20209;-39
2023/05/20 07:31:55;;;;;;;4.83;4.30;;;15.60;99.90;;;;;;5112815;28;20171;-40
2023/05/20 07:34:21;;;;;;;6.43;5.20;;;15.60;99.90;;;;;;5095856;28;20194;-40
2023/05/20 07:36:48;;;;;;;5.43;4.90;;;15.60;99.90;;;;;;5113638;28;20254;-38
2023/05/20 07:39:15;;;;;;;6.27;5.27;;;15.70;99.90;;;;;;5096383;28;20176;-37
2023/05/20 07:41:41;;;;;;;7.60;5.50;;;15.80;99.90;;;;;;5112958;28;20270;-37
2023/05/20 07:44:07;;;;;;;5.67;4.97;;;15.90;99.90;;;;;;5108855;28;20287;-37
2023/05/20 07:46:37;;;;;;;5.63;5.13;;;15.80;99.90;;;;;;5088521;28;20176;-38
2023/05/20 07:49:04;;;;;;;5.50;5.00;;;16.10;99.90;;;;;;5092945;28;20261;-36
2023/05/20 07:51:30;;;;;;;5.80;5.30;;;16.30;99.90;;;;;;5092597;28;20184;-38
2023/05/20 07:53:56;;;;;;;5.80;5.00;;;16.60;99.90;;;;;;5092411;28;20207;-37
2023/05/20 07:56:22;;;;;;;7.00;5.78;;;16.70;99.90;;;;;;5091469;28;20645;-39
2023/05/20 07:58:54;;;;;;;6.33;5.33;;;16.70;99.90;;;;;;5092705;28;20183;-36
2023/05/20 08:01:21;;;;;;;6.90;5.47;;;16.60;99.90;;;;;;5092741;28;20184;-34
2023/05/20 08:03:47;;;;;;;6.25;5.30;;;16.70;99.90;;;;;;5092188;28;20196;-40
2023/05/20 08:06:17;;;;;;;5.40;4.90;;;16.70;99.90;;;;;;5091908;28;20175;-40
2023/05/20 08:08:43;;;;;;;5.63;5.13;;;16.80;99.90;;;;;;5092412;28;20212;-38
2023/05/20 08:11:16;;;;;;;5.60;5.10;;;16.70;99.90;;;;;;5076878;28;20257;-36
2023/05/20 08:13:42;;;;;;;8.20;5.70;;;16.70;99.90;;;;;;5103662;27;20227;-39
2023/05/20 08:16:08;;;;;;;7.40;5.73;;;16.50;99.90;;;;;;5091022;27;20216;-43
2023/05/20 08:18:38;;;;;;;5.93;5.30;;;16.50;99.90;;;;;;5099717;27;20171;-37
2023/05/20 08:21:08;;;;;;;5.80;5.28;;;16.50;99.90;;;;;;5099456;27;20186;-37
2023/05/20 08:23:35;;;;;;;5.60;5.10;;;16.60;99.90;;;;;;5135019;27;20191;-38
2023/05/20 08:26:02;;;;;;;7.30;5.30;;;16.70;99.90;;;;;;5099334;27;20223;-41
2023/05/20 08:28:30;;;;;;;6.80;5.65;;;16.90;99.90;;;;;;5116527;27;20234;-36
2023/05/20 08:30:57;;;;;;;5.85;5.28;;;17.00;99.90;;;;;;5099514;27;20187;-41
2023/05/20 08:33:23;;;;;;;5.97;5.40;;;17.10;99.90;;;;;;5116362;27;20218;-38
2023/05/20 08:35:49;;;;;;;5.80;5.20;;;17.40;99.90;;;;;;5099201;27;20179;-40
2023/05/20 08:38:15;;;;;;;6.00;5.40;;;17.60;99.90;;;;;;5116511;27;20183;-38
2023/05/20 08:40:41;;;;;;;6.50;5.75;;;17.70;99.90;;;;;;5116594;27;20175;-36
2023/05/20 08:43:08;;;;;;;6.88;5.43;;;17.70;99.90;;;;;;5099653;27;20236;-38
2023/05/20 08:45:37;;;;;;;7.35;6.00;;;17.80;99.90;;;;;;5100050;28;20192;-39
2023/05/20 08:48:08;;;;;;;6.35;5.25;;;17.80;99.90;;;;;;5096132;28;20242;-37
2023/05/20 08:50:34;;;;;;;6.32;5.47;;;17.90;99.90;;;;;;5114491;27;20252;-40
2023/05/20 08:53:00;;;;;;;5.60;5.00;;;18.20;99.90;;;;;;5134098;27;20283;-41
2023/05/20 08:55:42;;;;;;;6.50;5.00;;;18.50;99.90;;;;;;5115450;27;20182;-40
2023/05/20 08:58:09;;;;;;;6.45;4.55;;;18.60;99.90;;;;;;5099126;27;20205;-38
2023/05/20 09:00:36;;;;;;;5.40;4.90;;;18.90;99.90;;;;;;5115228;27;20250;-39
2023/05/20 09:03:03;;;;;;;4.82;4.38;;;19.00;99.90;;;;;;5115791;27;20206;-40
2023/05/20 09:05:29;;;;;;;5.28;4.78;;;19.10;99.90;;;;;;5115393;27;20653;-37
2023/05/20 09:08:08;;;;;;;5.55;5.05;;;19.00;99.90;;;;;;5132889;27;20199;-36
2023/05/20 09:10:35;;;;;;;5.35;4.85;;;18.80;99.90;;;;;;5115799;27;20206;-39
2023/05/20 09:13:02;;;;;;;5.00;4.50;;;18.90;99.90;;;;;;5115727;27;20205;-38
2023/05/20 09:15:30;;;;;;;5.00;4.40;;;18.70;99.90;;;;;;5109091;28;20171;-37
2023/05/20 09:18:00;;;;;;;8.68;4.93;;;18.80;99.90;;;;;;5096741;27;20191;-36
2023/05/20 09:20:25;;;;;;;5.45;4.53;;;18.80;99.90;;;;;;5133835;27;20191;-39
2023/05/20 09:22:54;;;;;;;4.93;4.53;;;18.80;99.90;;;;;;5133815;27;20198;-38
2023/05/20 09:25:21;;;;;;;4.90;4.50;;;19.00;99.90;;;;;;5114667;27;20171;-40
2023/05/20 09:27:49;;;;;;;6.60;4.25;;;19.20;99.90;;;;;;5133955;27;20195;-41
2023/05/20 09:30:18;;;;;;;4.47;4.07;;;19.10;99.90;;;;;;5098292;27;20172;-40
2023/05/20 09:32:44;;;;;;;5.00;4.38;;;19.40;99.90;;;;;;5098191;27;20283;-38
2023/05/20 09:35:13;;;;;;;4.88;4.47;;;19.70;99.90;;;;;;5098007;27;20215;-37
2023/05/20 09:37:42;;;;;;;6.30;4.88;;;19.90;99.90;;;;;;5098373;27;20175;-41
2023/05/20 09:40:11;;;;;;;4.80;4.40;;;20.00;99.90;;;;;;5115018;27;20179;-34
2023/05/20 09:42:38;;;;;;;5.05;4.32;;;20.10;99.90;;;;;;5098203;27;20603;-40
2023/05/20 09:45:08;;;;;;;5.78;5.18;;;20.30;99.90;;;;;;5103032;28;20180;-36
2023/05/20 09:47:37;;;;;;;6.72;4.40;;;20.10;99.90;;;;;;5116091;27;20206;-39
2023/05/20 09:50:06;;;;;;;5.15;4.60;;;20.00;99.90;;;;;;5135775;27;20171;-38
2023/05/20 09:52:37;;;;;;;5.25;4.75;;;20.00;99.90;;;;;;5135238;27;20230;-39
2023/05/20 09:55:04;;;;;;;5.00;4.60;;;20.10;99.90;;;;;;5135385;27;20235;-38
2023/05/20 09:57:34;;;;;;;4.65;4.25;;;20.10;99.90;;;;;;5118344;27;20247;-37
2023/05/20 10:00:01;;;;;;;5.35;4.40;;;20.30;99.90;;;;;;5118152;27;20182;-36
2023/05/20 10:02:27;;;;;;;4.13;3.80;;;20.30;99.90;;;;;;5134783;27;20217;-39
2023/05/20 10:04:55;;;;;;;5.03;4.53;;;20.20;99.90;;;;;;5117740;27;20178;-40
2023/05/20 10:08:01;;;;;;;4.93;4.53;;;20.30;99.90;;;;;;5144150;27;20263;-37
2023/05/20 10:10:47;;;;;;;4.70;4.30;;;20.40;99.90;;;;;;5097567;27;20186;-38
2023/05/20 10:13:31;;;;;;;4.90;4.40;;;20.60;99.90;;;;;;5114249;27;20214;-36
2023/05/20 10:16:34;;;;;;;5.30;4.78;;;20.80;99.90;;;;;;5095144;27;20184;-38
2023/05/20 10:19:06;;;;;;;4.90;4.50;;;21.20;99.90;;;;;;5098985;27;20205;-32
2023/05/20 10:21:31;;;;;;;4.95;4.55;;;21.30;99.90;;;;;;5132526;27;20174;-34
2023/05/20 10:24:08;;;;;;;5.50;5.00;;;21.40;99.90;;;;;;5111255;27;20195;-34
2023/05/20 10:26:39;;;;;;;6.30;5.30;;;21.40;99.90;;;;;;5113663;27;20179;-34
2023/05/20 10:29:14;;;;;;;5.05;4.55;;;21.30;99.90;;;;;;5109585;27;20206;-33
2023/05/20 10:31:47;;;;;;;5.38;4.80;;;21.20;99.90;;;;;;5113635;27;20182;-33
2023/05/20 10:34:18;;;;;;;4.97;4.57;;;21.00;99.90;;;;;;5112347;28;20191;-34
2023/05/20 10:36:58;;;;;;;5.15;4.65;;;21.00;99.90;;;;;;5097387;27;20175;-33
2023/05/20 10:39:34;;;;;;;4.78;4.38;;;21.00;99.90;;;;;;5114090;27;20177;-33
2023/05/20 10:42:10;;;;;;;5.22;4.38;;;21.10;99.90;;;;;;5097353;27;20170;-33
2023/05/20 10:44:46;;;;;;;4.90;4.45;;;21.30;99.90;;;;;;5105784;27;20236;-34
2023/05/20 10:47:12;;;;;;;5.13;4.50;;;21.40;99.90;;;;;;5101511;28;20218;-34
2023/05/20 10:49:48;;;;;;;7.53;4.68;;;21.70;99.90;;;;;;5113137;27;20258;-33
2023/05/20 10:52:15;;;;;;;4.63;4.22;;;21.70;99.90;;;;;;5116717;27;20179;-33
2023/05/20 10:54:46;;;;;;;5.30;4.70;;;21.90;99.90;;;;;;5078037;27;20269;-35
2023/05/20 10:57:12;;;;;;;4.43;4.03;;;21.70;99.90;;;;;;5113252;27;20205;-34
2023/05/20 10:59:38;;;;;;;4.90;4.40;;;21.70;99.90;;;;;;5096068;27;20167;-35
2023/05/20 11:02:04;;;;;;;4.60;4.20;;;21.90;99.90;;;;;;5113007;27;20293;-33
2023/05/20 11:04:31;;;;;;;5.72;4.78;;;21.90;99.90;;;;;;5112351;27;20203;-34
2023/05/20 11:06:57;;;;;;;5.80;4.55;;;21.90;99.90;;;;;;5120285;27;20171;-33
2023/05/20 11:09:23;;;;;;;6.95;4.72;;;21.90;99.90;;;;;;5113677;27;20184;-34
2023/05/20 11:11:51;;;;;;;4.50;4.10;;;21.80;99.90;;;;;;5113651;27;20228;-32
2023/05/20 11:14:18;;;;;;;5.88;4.13;;;22.00;99.90;;;;;;5113216;27;20218;-33
2023/05/20 11:16:45;;;;;;;4.80;4.40;;;22.30;99.90;;;;;;5114028;28;20179;-35
2023/05/20 11:19:15;;;;;;;5.10;4.13;;;22.20;99.90;;;;;;5114027;27;20250;-35
2023/05/20 11:21:46;;;;;;;4.55;4.15;;;22.20;99.90;;;;;;5103465;28;20180;-35
2023/05/20 11:24:12;;;;;;;4.97;4.28;;;22.30;99.90;;;;;;5111236;28;20204;-37
2023/05/20 11:26:39;;;;;;;5.13;4.13;;;22.40;99.90;;;;;;5093115;28;20191;-34
2023/05/20 11:29:06;;;;;;;5.97;4.20;;;22.20;99.90;;;;;;5093095;28;20199;-35
2023/05/20 11:31:33;;;;;;;4.80;4.40;;;22.30;99.90;;;;;;5093418;28;20202;-33
2023/05/20 11:34:03;;;;;;;4.15;3.75;;;22.10;99.90;;;;;;5093128;28;20192;-34
2023/05/20 11:36:29;;;;;;;7.03;4.05;;;22.00;99.90;;;;;;5075846;28;20186;-34
2023/05/20 11:39:00;;;;;;;5.05;4.50;;;22.10;99.90;;;;;;5093274;28;20183;-36
2023/05/20 11:41:26;;;;;;;5.05;4.30;;;22.40;99.90;;;;;;5094081;28;20192;-35
2023/05/20 11:43:59;;;;;;;4.53;4.13;;;22.50;99.90;;;;;;5101897;28;20207;-35
2023/05/20 11:46:26;;;;;;;4.55;4.15;;;22.50;99.90;;;;;;5113092;27;20175;-36
2023/05/20 11:48:54;;;;;;;4.55;3.90;;;22.80;99.90;;;;;;5095728;28;20286;-35
2023/05/20 11:51:32;;;;;;;4.85;4.40;;;23.20;99.90;;;;;;5103240;27;20171;-34
2023/05/20 11:54:00;;;;;;;4.75;4.20;;;23.50;99.90;;;;;;5117206;27;20220;-33
2023/05/20 11:56:32;;;;;;;5.30;4.80;;;23.40;99.90;;;;;;5114871;27;20172;-34
2023/05/20 11:59:01;;;;;;;9.45;5.32;;;23.60;99.90;;;;;;5097364;28;20233;-34
2023/05/20 12:01:44;;;;;;;9.60;5.28;;;24.10;99.90;;;;;;5080116;28;20190;-39
2023/05/20 12:04:13;;;;;;;6.35;5.40;;;24.10;99.90;;;;;;5110768;27;20206;-35
2023/05/20 12:06:41;;;;;;;6.53;4.80;;;24.10;99.90;;;;;;5117215;27;20202;-33
2023/05/20 12:09:08;;;;;;;5.50;4.72;;;24.10;99.90;;;;;;5117689;27;20271;-34
2023/05/20 12:11:36;;;;;;;7.18;5.88;;;24.20;99.90;;;;;;5096162;28;20241;-35
2023/05/20 12:14:03;;;;;;;5.30;4.63;;;24.30;99.90;;;;;;5107074;27;20218;-34
2023/05/20 12:16:34;;;;;;;5.50;4.95;;;24.10;99.90;;;;;;5126625;27;20250;-34
2023/05/20 12:19:00;;;;;;;4.60;4.07;;;24.20;99.90;;;;;;5107100;27;20179;-34
2023/05/20 12:21:27;;;;;;;4.60;4.20;;;24.30;99.90;;;;;;5133416;27;20179;-35
2023/05/20 12:23:56;;;;;;;4.50;4.10;;;24.30;99.90;;;;;;5120695;27;20208;-35
2023/05/20 12:26:26;;;;;;;4.20;3.80;;;24.50;99.90;;;;;;5095664;27;20182;-33
2023/05/20 12:28:53;;;;;;;4.13;3.83;;;24.40;99.90;;;;;;5099857;27;20187;-33
2023/05/20 12:31:19;;;;;;;4.63;4.22;;;24.40;99.90;;;;;;5135367;27;20220;-34
2023/05/20 12:33:45;;;;;;;4.88;4.35;;;24.40;99.90;;;;;;5116732;27;20252;-35
2023/05/20 12:36:12;;;;;;;4.50;3.97;;;24.30;99.90;;;;;;5116697;27;20171;-34
2023/05/20 12:38:38;;;;;;;7.03;4.30;;;24.50;99.90;;;;;;5082569;28;20180;-37
2023/05/20 12:41:04;;;;;;;4.72;4.28;;;24.40;99.90;;;;;;5100721;27;20179;-35
2023/05/20 12:43:29;;;;;;;4.60;4.20;;;24.40;99.90;;;;;;5108907;28;20196;-34
2023/05/20 12:45:55;;;;;;;4.65;3.92;;;24.50;99.90;;;;;;5094229;28;20172;-34
2023/05/20 12:48:21;;;;;;;4.00;3.63;;;24.40;99.90;;;;;;5092896;27;20223;-33